createdAt,value
2018-11-14T00:01:30.676Z,4.80
2018-11-14T00:03:58.803Z,5.87
2018-11-14T00:06:27.218Z,4.80
2018-11-14T00:08:55.206Z,4.90
2018-11-14T00:11:24.279Z,4.42
2018-11-14T00:13:52.258Z,4.85
2018-11-14T00:16:20.152Z,4.17
2018-11-14T00:18:49.092Z,4.15
2018-11-14T00:21:16.870Z,5.05
2018-11-14T00:23:44.823Z,5.15
2018-11-14T00:26:12.875Z,5.05
2018-11-14T00:28:40.843Z,4.78
2018-11-14T00:31:09.586Z,4.15
2018-11-14T00:33:37.362Z,6.75
2018-11-14T00:36:05.360Z,4.92
2018-11-14T00:38:32.981Z,4.03
2018-11-14T00:41:00.605Z,6.20
2018-11-14T00:43:28.293Z,4.55
2018-11-14T00:45:56.184Z,4.33
2018-11-14T00:48:24.503Z,5.10
2018-11-14T00:50:52.806Z,3.95
2018-11-14T00:53:20.552Z,4.33
2018-11-14T00:55:48.251Z,6.75
2018-11-14T00:58:16.234Z,6.92
2018-11-14T01:00:44.007Z,5.62
2018-11-14T01:03:11.692Z,5.25
2018-11-14T01:05:39.352Z,4.45
2018-11-14T01:08:08.058Z,3.83
2018-11-14T01:10:36.326Z,3.42
2018-11-14T01:13:04.042Z,4.28
2018-11-14T01:15:32.191Z,4.97
2018-11-14T01:17:59.900Z,4.97
2018-11-14T01:20:27.552Z,5.85
2018-11-14T01:22:55.251Z,4.55
2018-11-14T01:25:22.900Z,4.60
2018-11-14T01:27:51.423Z,4.40
2018-11-14T01:30:22.238Z,4.80
2018-11-14T01:32:50.632Z,4.80
2018-11-14T01:35:19.490Z,6.85
2018-11-14T01:37:47.530Z,5.12
2018-11-14T01:40:18.908Z,4.50
2018-11-14T01:42:48.556Z,5.53
2018-11-14T01:45:16.195Z,4.60
2018-11-14T01:47:44.058Z,4.70
2018-11-14T01:50:12.015Z,4.67
2018-11-14T01:52:39.872Z,4.50
2018-11-14T01:55:09.674Z,4.70
2018-11-14T01:57:37.406Z,5.50
2018-11-14T02:00:09.009Z,4.90
2018-11-14T02:02:37.419Z,4.22
2018-11-14T02:05:07.341Z,5.60
2018-11-14T02:07:35.767Z,4.55
2018-11-14T02:10:04.980Z,3.72
2018-11-14T02:12:32.714Z,4.37
2018-11-14T02:15:00.394Z,4.35
2018-11-14T02:17:27.990Z,3.50
2018-11-14T02:19:55.800Z,4.30
2018-11-14T02:22:23.498Z,4.08
2018-11-14T02:24:52.126Z,3.40
2018-11-14T02:27:19.877Z,3.80
2018-11-14T02:29:47.637Z,3.27
2018-11-14T02:32:16.085Z,3.42
2018-11-14T02:34:43.705Z,3.40
2018-11-14T02:37:11.387Z,3.95
2018-11-14T02:39:39.678Z,4.10
2018-11-14T02:42:07.492Z,3.92
2018-11-14T02:44:35.229Z,3.55
2018-11-14T02:47:03.117Z,4.67
2018-11-14T02:49:31.420Z,5.62
2018-11-14T02:51:59.626Z,4.10
2018-11-14T02:54:27.349Z,4.08
2018-11-14T02:56:55.118Z,4.70
2018-11-14T02:59:23.337Z,4.90
2018-11-14T03:01:51.050Z,5.95
2018-11-14T03:04:18.712Z,4.58
2018-11-14T03:06:46.352Z,5.00
2018-11-14T03:09:14.355Z,6.80
2018-11-14T03:11:42.057Z,5.85
2018-11-14T03:14:10.237Z,5.05
2018-11-14T03:16:37.902Z,5.50
2018-11-14T03:19:06.831Z,5.58
2018-11-14T03:21:34.402Z,5.78
2018-11-14T03:24:03.075Z,4.83
2018-11-14T03:26:30.834Z,5.55
2018-11-14T03:28:58.646Z,4.95
2018-11-14T03:31:27.086Z,4.67
2018-11-14T03:33:54.782Z,4.58
2018-11-14T03:36:22.768Z,4.60
2018-11-14T03:38:50.565Z,5.10
2018-11-14T03:41:19.633Z,4.65
2018-11-14T03:43:47.330Z,4.62
2018-11-14T03:46:15.513Z,5.10
2018-11-14T03:48:43.939Z,5.72
2018-11-14T03:51:11.756Z,5.53
2018-11-14T03:53:39.408Z,5.30
2018-11-14T03:56:07.818Z,5.05
2018-11-14T03:58:35.505Z,7.05
2018-11-14T04:01:03.270Z,6.53
2018-11-14T04:03:31.383Z,5.95
2018-11-14T04:05:59.875Z,6.95
2018-11-14T04:08:27.830Z,7.92
2018-11-14T04:10:55.494Z,7.12
2018-11-14T04:13:23.209Z,7.05
2018-11-14T04:15:50.845Z,6.90
2018-11-14T04:18:18.512Z,6.20
2018-11-14T04:20:46.251Z,6.10
2018-11-14T04:23:14.026Z,6.70
2018-11-14T04:25:42.947Z,6.55
2018-11-14T04:28:10.697Z,8.68
2018-11-14T04:30:38.281Z,8.63
2018-11-14T04:33:05.965Z,6.47
2018-11-14T04:35:33.781Z,5.67
2018-11-14T04:38:01.532Z,7.37
2018-11-14T04:40:29.371Z,5.80
2018-11-14T04:42:57.222Z,5.75
2018-11-14T04:45:26.244Z,8.73
2018-11-14T04:47:55.168Z,8.25
2018-11-14T04:50:24.110Z,9.43
2018-11-14T04:52:52.411Z,8.43
2018-11-14T04:55:21.954Z,9.25
2018-11-14T04:57:50.021Z,10.38
2018-11-14T05:00:19.067Z,9.50
2018-11-14T05:02:47.561Z,9.25
2018-11-14T05:05:16.730Z,9.88
2018-11-14T05:07:44.436Z,10.20
2018-11-14T05:10:14.575Z,9.33
2018-11-14T05:12:42.482Z,9.98
2018-11-14T05:15:11.902Z,9.13
2018-11-14T05:17:41.065Z,10.70
2018-11-14T05:20:10.698Z,10.45
2018-11-14T05:22:38.572Z,8.80
2018-11-14T05:25:06.572Z,7.62
2018-11-14T05:27:34.389Z,8.63
2018-11-14T05:30:02.177Z,9.55
2018-11-14T05:32:29.872Z,9.15
2018-11-14T05:34:57.471Z,10.43
2018-11-14T05:37:25.181Z,9.55
2018-11-14T05:39:53.687Z,8.88
2018-11-14T05:42:21.725Z,9.40
2018-11-14T05:44:49.973Z,9.10
2018-11-14T05:47:17.730Z,7.92
2018-11-14T05:49:45.573Z,8.50
2018-11-14T05:52:13.344Z,8.05
2018-11-14T05:54:41.001Z,9.25
2018-11-14T05:57:08.832Z,9.85
2018-11-14T05:59:37.167Z,8.90
2018-11-14T06:02:05.571Z,8.45
2018-11-14T06:04:33.279Z,8.60
2018-11-14T06:07:01.102Z,8.55
2018-11-14T06:09:29.500Z,7.97
2018-11-14T06:11:57.918Z,9.18
2018-11-14T06:14:25.552Z,10.65
2018-11-14T06:16:53.935Z,11.25
2018-11-14T06:19:21.946Z,11.55
2018-11-14T06:21:50.394Z,14.83
2018-11-14T06:24:18.206Z,14.03
2018-11-14T06:26:46.137Z,13.38
2018-11-14T06:29:14.257Z,14.63
2018-11-14T06:31:42.662Z,16.15
2018-11-14T06:34:11.112Z,15.50
2018-11-14T06:36:38.950Z,15.40
2018-11-14T06:39:10.013Z,15.70
2018-11-14T06:41:37.848Z,16.37
2018-11-14T06:44:06.772Z,15.70
2018-11-14T06:46:34.998Z,17.62
2018-11-14T06:49:02.856Z,16.85
2018-11-14T06:51:30.765Z,13.30
2018-11-14T06:53:58.976Z,14.90
2018-11-14T06:56:26.719Z,14.43
2018-11-14T06:58:55.162Z,13.95
2018-11-14T07:01:23.318Z,13.75
2018-11-14T07:03:51.581Z,13.48
2018-11-14T07:06:19.858Z,13.28
2018-11-14T07:08:47.542Z,13.35
2018-11-14T07:11:16.178Z,13.20
2018-11-14T07:13:44.074Z,13.45
2018-11-14T07:16:12.659Z,13.00
2018-11-14T07:18:41.910Z,14.90
2018-11-14T07:21:09.717Z,14.25
2018-11-14T07:23:37.486Z,15.15
2018-11-14T07:26:05.678Z,12.90
2018-11-14T07:28:33.928Z,13.05
2018-11-14T07:31:02.332Z,14.00
2018-11-14T07:33:30.485Z,12.30
2018-11-14T07:35:58.127Z,12.47
2018-11-14T07:38:38.606Z,13.05
2018-11-14T07:41:07.985Z,13.75
2018-11-14T07:43:36.554Z,14.33
2018-11-14T07:46:04.619Z,14.50
2018-11-14T07:48:32.670Z,13.50
2018-11-14T07:51:01.082Z,14.83
2018-11-14T07:53:29.332Z,13.03
2018-11-14T07:55:58.370Z,13.88
2018-11-14T07:58:26.055Z,14.53
2018-11-14T08:00:54.588Z,13.68
2018-11-14T08:03:23.284Z,21.73
2018-11-14T08:05:51.105Z,18.50
2018-11-14T08:08:19.208Z,17.07
2018-11-14T08:10:46.885Z,24.32
2018-11-14T08:13:15.011Z,17.35
2018-11-14T08:15:43.210Z,16.93
2018-11-14T08:18:11.618Z,15.20
2018-11-14T08:20:39.231Z,16.75
2018-11-14T08:23:06.958Z,17.12
2018-11-14T08:25:34.739Z,17.95
2018-11-14T08:28:02.459Z,16.25
2018-11-14T08:30:30.291Z,16.90
2018-11-14T08:32:59.074Z,15.58
2018-11-14T08:35:26.811Z,15.58
2018-11-14T08:37:55.133Z,17.02
2018-11-14T08:40:23.336Z,15.32
2018-11-14T08:42:51.099Z,13.75
2018-11-14T08:45:18.766Z,16.00
2018-11-14T08:47:47.793Z,14.35
2018-11-14T08:50:16.146Z,14.83
2018-11-14T08:52:44.831Z,12.60
2018-11-14T08:55:13.395Z,15.83
2018-11-14T08:57:42.489Z,15.15
2018-11-14T09:00:17.190Z,14.70
2018-11-14T09:02:45.671Z,15.80
2018-11-14T09:05:13.673Z,16.52
2018-11-14T09:07:41.527Z,15.90
2018-11-14T09:10:20.497Z,14.83
2018-11-14T09:12:48.670Z,14.83
2018-11-14T09:15:18.132Z,14.47
2018-11-14T09:17:46.094Z,14.38
2018-11-14T09:20:16.269Z,13.28
2018-11-14T09:22:44.405Z,12.80
2018-11-14T09:25:16.611Z,12.28
2018-11-14T09:27:44.939Z,11.10
2018-11-14T09:30:15.909Z,11.65
2018-11-14T09:32:43.591Z,10.43
2018-11-14T09:35:12.567Z,11.80
2018-11-14T09:37:41.603Z,10.88
2018-11-14T09:40:11.038Z,9.35
2018-11-14T09:42:39.308Z,9.68
2018-11-14T09:45:11.282Z,8.35
2018-11-14T09:47:39.633Z,7.58
2018-11-14T09:50:09.853Z,8.45
2018-11-14T09:52:37.475Z,8.15
2018-11-14T09:55:07.025Z,7.37
2018-11-14T09:57:34.963Z,7.00
2018-11-14T10:00:03.148Z,7.53
2018-11-14T10:02:30.941Z,7.03
2018-11-14T10:04:58.643Z,7.62
2018-11-14T10:07:26.266Z,6.58
2018-11-14T10:09:54.652Z,7.22
2018-11-14T10:12:22.487Z,8.08
2018-11-14T10:14:50.976Z,7.72
2018-11-14T10:17:18.631Z,8.43
2018-11-14T10:19:47.002Z,8.68
2018-11-14T10:22:14.925Z,6.75
2018-11-14T10:24:42.684Z,6.47
2018-11-14T10:27:10.319Z,7.70
2018-11-14T10:29:38.035Z,8.63
2018-11-14T10:32:05.800Z,8.88
2018-11-14T10:34:33.657Z,11.88
2018-11-14T10:37:01.390Z,12.18
2018-11-14T10:39:29.181Z,13.53
2018-11-14T10:41:56.846Z,13.72
2018-11-14T10:44:24.683Z,13.22
2018-11-14T10:46:52.594Z,12.35
2018-11-14T10:49:20.334Z,13.53
2018-11-14T10:51:48.138Z,11.60
2018-11-14T10:54:16.123Z,13.32
2018-11-14T10:56:44.726Z,13.40
2018-11-14T10:59:12.382Z,12.10
2018-11-14T11:01:46.022Z,14.05
2018-11-14T11:04:19.532Z,13.32
2018-11-14T11:06:52.897Z,14.43
2018-11-14T11:09:26.477Z,14.45
2018-11-14T11:11:59.786Z,13.65
2018-11-14T11:14:34.858Z,14.47
2018-11-14T11:17:08.362Z,12.95
2018-11-14T11:19:37.018Z,13.08
2018-11-14T11:22:05.082Z,11.40
2018-11-14T11:24:32.734Z,11.90
2018-11-14T11:27:00.409Z,12.28
2018-11-14T11:29:28.162Z,11.60
2018-11-14T11:31:55.842Z,11.53
2018-11-14T11:34:24.884Z,11.68
2018-11-14T11:36:52.655Z,11.00
2018-11-14T11:39:20.398Z,10.35
2018-11-14T11:41:49.570Z,9.88
2018-11-14T11:44:17.832Z,9.08
2018-11-14T11:46:46.125Z,8.03
2018-11-14T11:49:14.373Z,7.58
2018-11-14T11:51:42.254Z,7.55
2018-11-14T11:54:09.948Z,8.00
2018-11-14T11:56:37.983Z,8.20
2018-11-14T11:59:06.535Z,8.58
2018-11-14T12:01:34.480Z,9.30
2018-11-14T12:04:02.274Z,12.58
2018-11-14T12:06:30.334Z,10.75
2018-11-14T12:08:58.187Z,11.95
2018-11-14T12:11:26.017Z,12.00
2018-11-14T12:13:53.971Z,12.13
2018-11-14T12:16:22.451Z,12.40
2018-11-14T12:18:50.443Z,11.95
2018-11-14T12:21:18.927Z,11.70
2018-11-14T12:23:46.951Z,11.97
2018-11-14T12:26:14.539Z,12.30
2018-11-14T12:28:42.378Z,11.97
2018-11-14T12:31:10.249Z,11.95
2018-11-14T12:33:38.357Z,13.13
2018-11-14T12:36:06.238Z,12.75
2018-11-14T12:38:34.160Z,12.78
2018-11-14T12:41:02.390Z,12.47
2018-11-14T12:43:30.294Z,12.82
2018-11-14T12:45:58.140Z,13.40
2018-11-14T12:48:25.819Z,13.10
2018-11-14T12:50:53.609Z,11.48
2018-11-14T12:53:21.271Z,11.38
2018-11-14T12:55:49.726Z,11.95
2018-11-14T12:58:17.568Z,12.98
2018-11-14T13:00:45.346Z,13.25
2018-11-14T13:03:13.910Z,12.07
2018-11-14T13:05:41.610Z,12.50
2018-11-14T13:08:09.378Z,12.95
2018-11-14T13:10:37.800Z,12.65
2018-11-14T13:13:05.585Z,13.90
2018-11-14T13:15:33.288Z,13.55
2018-11-14T13:18:01.027Z,14.23
2018-11-14T13:20:28.891Z,14.45
2018-11-14T13:22:56.921Z,16.30
2018-11-14T13:25:24.598Z,16.62
2018-11-14T13:27:52.494Z,16.70
2018-11-14T13:30:22.642Z,15.98
2018-11-14T13:32:51.836Z,14.70
2018-11-14T13:35:20.579Z,16.82
2018-11-14T13:37:49.263Z,15.32
2018-11-14T13:40:17.165Z,16.32
2018-11-14T13:42:45.305Z,15.20
2018-11-14T13:45:14.305Z,15.72
2018-11-14T13:47:42.337Z,16.35
2018-11-14T13:50:19.090Z,14.78
2018-11-14T13:52:46.928Z,15.10
2018-11-14T13:55:16.319Z,14.50
2018-11-14T13:57:45.420Z,14.00
2018-11-14T14:00:14.973Z,14.68
2018-11-14T14:02:43.979Z,15.53
2018-11-14T14:05:15.144Z,15.40
2018-11-14T14:07:42.854Z,14.87
2018-11-14T14:10:12.712Z,15.38
2018-11-14T14:12:41.841Z,17.75
2018-11-14T14:15:12.446Z,15.95
2018-11-14T14:17:40.476Z,18.95
2018-11-14T14:20:09.421Z,18.35
2018-11-14T14:22:37.198Z,18.05
2018-11-14T14:25:06.787Z,19.27
2018-11-14T14:27:34.458Z,17.55
2018-11-14T14:30:02.557Z,19.20
2018-11-14T14:32:31.683Z,20.10
2018-11-14T14:34:59.442Z,20.00
2018-11-14T14:37:27.202Z,19.42
2018-11-14T14:39:55.027Z,18.23
2018-11-14T14:42:22.794Z,19.02
2018-11-14T14:44:51.801Z,18.70
2018-11-14T14:47:19.632Z,19.77
2018-11-14T14:49:47.572Z,19.05
2018-11-14T14:52:15.804Z,20.82
2018-11-14T14:54:44.150Z,20.68
2018-11-14T14:57:11.991Z,21.12
2018-11-14T14:59:39.876Z,20.82
2018-11-14T15:02:07.684Z,21.00
2018-11-14T15:04:35.378Z,22.55
2018-11-14T15:07:03.482Z,20.55
2018-11-14T15:09:31.262Z,22.42
2018-11-14T15:11:59.741Z,19.27
2018-11-14T15:14:27.641Z,22.67
2018-11-14T15:16:55.407Z,24.15
2018-11-14T15:19:23.308Z,22.50
2018-11-14T15:21:51.147Z,22.70
2018-11-14T15:24:18.936Z,21.77
2018-11-14T15:26:46.641Z,25.68
2018-11-14T15:29:15.064Z,28.05
2018-11-14T15:31:42.750Z,26.73
2018-11-14T15:34:10.492Z,27.25
2018-11-14T15:36:38.271Z,30.05
2018-11-14T15:39:10.130Z,26.48
2018-11-14T15:41:38.000Z,28.70
2018-11-14T15:44:05.733Z,28.00
2018-11-14T15:46:33.479Z,28.60
2018-11-14T15:49:01.471Z,29.70
2018-11-14T15:51:29.409Z,29.37
2018-11-14T15:53:57.835Z,27.00
2018-11-14T15:56:25.880Z,32.38
2018-11-14T15:58:54.340Z,30.75
2018-11-14T16:01:22.418Z,30.27
2018-11-14T16:03:50.166Z,28.30
2018-11-14T16:06:18.030Z,29.30
2018-11-14T16:08:45.976Z,30.80
2018-11-14T16:11:14.681Z,28.40
2018-11-14T16:13:47.188Z,30.20
2018-11-14T16:16:14.979Z,29.25
2018-11-14T16:18:42.811Z,30.00
2018-11-14T16:21:10.589Z,28.95
2018-11-14T16:23:38.469Z,27.95
2018-11-14T16:26:06.311Z,29.18
2018-11-14T16:28:33.971Z,27.87
2018-11-14T16:31:01.830Z,26.48
2018-11-14T16:33:30.785Z,25.25
2018-11-14T16:35:59.741Z,26.85
2018-11-14T16:38:27.949Z,29.02
2018-11-14T16:40:56.382Z,25.37
2018-11-14T16:43:24.406Z,28.07
2018-11-14T16:45:52.758Z,26.85
2018-11-14T16:48:20.437Z,26.23
2018-11-14T16:50:48.570Z,27.42
2018-11-14T16:53:16.721Z,27.02
2018-11-14T16:55:44.695Z,29.72
2018-11-14T16:58:12.331Z,26.33
2018-11-14T17:00:40.144Z,25.92
2018-11-14T17:03:08.073Z,26.48
2018-11-14T17:05:36.130Z,29.40
2018-11-14T17:08:04.887Z,31.75
2018-11-14T17:10:32.765Z,27.87
2018-11-14T17:13:01.452Z,30.77
2018-11-14T17:15:29.153Z,30.72
2018-11-14T17:17:57.138Z,29.60
2018-11-14T17:20:24.966Z,30.97
2018-11-14T17:22:53.955Z,27.82
2018-11-14T17:25:21.941Z,29.10
2018-11-14T17:27:50.055Z,28.92
2018-11-14T17:30:20.936Z,31.25
2018-11-14T17:32:48.714Z,31.87
2018-11-14T17:35:16.692Z,31.35
2018-11-14T17:37:45.229Z,32.63
2018-11-14T17:40:16.424Z,30.72
2018-11-14T17:42:44.976Z,28.60
2018-11-14T17:45:18.865Z,29.48
2018-11-14T17:47:47.140Z,28.25
2018-11-14T17:50:23.911Z,31.00
2018-11-14T17:52:52.524Z,28.80
2018-11-14T17:55:21.400Z,30.68
2018-11-14T17:57:49.695Z,31.42
2018-11-14T18:00:19.831Z,32.10
2018-11-14T18:02:47.967Z,29.48
2018-11-14T18:05:21.165Z,28.42
2018-11-14T18:07:49.829Z,34.43
2018-11-14T18:10:19.281Z,29.45
2018-11-14T18:12:48.836Z,28.53
2018-11-14T18:15:17.267Z,29.70
2018-11-14T18:17:45.404Z,31.37
2018-11-14T18:20:14.538Z,29.92
2018-11-14T18:22:42.965Z,28.75
2018-11-14T18:25:11.500Z,29.50
2018-11-14T18:27:39.901Z,29.63
2018-11-14T18:30:13.577Z,27.32
2018-11-14T18:32:41.330Z,29.82
2018-11-14T18:35:11.904Z,25.35
2018-11-14T18:37:40.844Z,24.55
2018-11-14T18:40:11.531Z,28.87
2018-11-14T18:42:39.884Z,25.25
2018-11-14T18:45:14.084Z,27.98
2018-11-14T18:47:42.307Z,25.88
2018-11-14T18:50:11.380Z,28.25
2018-11-14T18:52:39.319Z,29.77
2018-11-14T18:55:09.274Z,29.57
2018-11-14T18:57:37.361Z,26.00
2018-11-14T19:00:07.858Z,27.22
2018-11-14T19:02:35.592Z,25.95
2018-11-14T19:05:03.753Z,25.15
2018-11-14T19:07:32.262Z,26.82
2018-11-14T19:10:00.060Z,26.02
2018-11-14T19:12:27.829Z,25.80
2018-11-14T19:14:56.011Z,24.57
2018-11-14T19:17:24.368Z,24.23
2018-11-14T19:19:52.138Z,25.55
2018-11-14T19:22:20.827Z,23.98
2018-11-14T19:24:48.856Z,23.87
2018-11-14T19:27:16.803Z,23.55
2018-11-14T19:29:44.956Z,24.32
2018-11-14T19:32:12.752Z,22.95
2018-11-14T19:34:40.663Z,24.82
2018-11-14T19:37:09.789Z,23.87
2018-11-14T19:39:37.526Z,25.85
2018-11-14T19:42:05.971Z,28.80
2018-11-14T19:44:35.187Z,24.40
2018-11-14T19:47:03.362Z,23.40
2018-11-14T19:49:31.472Z,23.60
2018-11-14T19:52:00.188Z,24.47
2018-11-14T19:54:28.313Z,22.22
2018-11-14T19:56:56.129Z,22.00
2018-11-14T19:59:23.829Z,23.35
2018-11-14T20:01:52.532Z,23.77
2018-11-14T20:04:20.748Z,22.62
2018-11-14T20:06:48.547Z,22.10
2018-11-14T20:09:16.316Z,21.90
2018-11-14T20:11:45.437Z,23.18
2018-11-14T20:14:13.158Z,22.75
2018-11-14T20:16:40.913Z,23.25
2018-11-14T20:19:08.831Z,23.92
2018-11-14T20:21:36.599Z,25.35
2018-11-14T20:24:04.723Z,24.35
2018-11-14T20:26:33.674Z,25.60
2018-11-14T20:29:02.065Z,24.87
2018-11-14T20:31:30.495Z,24.07
2018-11-14T20:33:58.619Z,23.92
2018-11-14T20:36:26.495Z,25.08
2018-11-14T20:38:54.190Z,23.47
2018-11-14T20:41:22.062Z,24.43
2018-11-14T20:43:49.766Z,24.45
2018-11-14T20:46:18.080Z,27.05
2018-11-14T20:48:46.556Z,25.65
2018-11-14T20:51:14.477Z,24.98
2018-11-14T20:53:43.671Z,24.57
2018-11-14T20:56:11.619Z,26.87
2018-11-14T20:58:40.566Z,24.90
2018-11-14T21:01:08.341Z,24.25
2018-11-14T21:03:36.852Z,25.45
2018-11-14T21:06:05.128Z,24.52
2018-11-14T21:08:32.845Z,24.18
2018-11-14T21:11:00.830Z,27.40
2018-11-14T21:13:29.194Z,24.55
2018-11-14T21:15:57.151Z,27.05
2018-11-14T21:18:25.550Z,25.65
2018-11-14T21:20:53.913Z,25.90
2018-11-14T21:23:22.228Z,23.92
2018-11-14T21:25:50.729Z,24.30
2018-11-14T21:28:18.681Z,24.57
2018-11-14T21:30:46.413Z,27.85
2018-11-14T21:33:14.801Z,24.63
2018-11-14T21:35:42.510Z,25.37
2018-11-14T21:38:10.637Z,24.18
2018-11-14T21:40:38.477Z,25.50
2018-11-14T21:43:07.085Z,23.75
2018-11-14T21:45:34.904Z,23.45
2018-11-14T21:48:08.381Z,23.87
2018-11-14T21:50:36.646Z,23.30
2018-11-14T21:53:04.658Z,22.40
2018-11-14T21:55:32.433Z,23.80
2018-11-14T21:58:00.444Z,24.18
2018-11-14T22:00:31.778Z,24.35
2018-11-14T22:02:59.581Z,25.55
2018-11-14T22:05:27.395Z,23.50
2018-11-14T22:07:55.818Z,25.35
2018-11-14T22:10:24.460Z,25.52
2018-11-14T22:12:52.444Z,23.52
2018-11-14T22:15:21.550Z,27.27
2018-11-14T22:17:49.538Z,25.12
2018-11-14T22:20:19.412Z,23.40
2018-11-14T22:22:47.505Z,23.05
2018-11-14T22:25:17.138Z,24.18
2018-11-14T22:27:45.103Z,21.02
2018-11-14T22:30:15.390Z,22.85
2018-11-14T22:32:43.099Z,23.00
2018-11-14T22:35:12.767Z,24.30
2018-11-14T22:37:40.745Z,23.77
2018-11-14T22:40:10.783Z,24.07
2018-11-14T22:42:38.517Z,24.43
2018-11-14T22:45:09.093Z,22.48
2018-11-14T22:47:37.053Z,24.85
2018-11-14T22:50:06.376Z,22.90
2018-11-14T22:52:34.218Z,22.80
2018-11-14T22:55:01.896Z,22.73
2018-11-14T22:57:30.337Z,22.15
2018-11-14T22:59:58.427Z,22.58
2018-11-14T23:02:26.881Z,22.55
2018-11-14T23:04:54.545Z,21.40
2018-11-14T23:07:22.379Z,23.18
2018-11-14T23:09:50.213Z,21.90
2018-11-14T23:12:17.866Z,22.32
2018-11-14T23:14:45.652Z,23.55
2018-11-14T23:17:13.402Z,24.18
2018-11-14T23:19:41.538Z,22.02
2018-11-14T23:22:10.438Z,23.50
2018-11-14T23:24:38.122Z,23.50
2018-11-14T23:27:06.310Z,21.05
2018-11-14T23:29:34.019Z,22.90
2018-11-14T23:32:03.248Z,21.87
2018-11-14T23:34:31.257Z,22.30
2018-11-14T23:36:58.994Z,22.80
2018-11-14T23:39:26.882Z,20.25
2018-11-14T23:41:54.527Z,21.82
2018-11-14T23:44:23.625Z,20.60
2018-11-14T23:46:51.481Z,20.92
2018-11-14T23:49:19.111Z,21.17
2018-11-14T23:51:47.501Z,18.87
2018-11-14T23:54:15.354Z,21.40
2018-11-14T23:56:42.956Z,20.35
2018-11-14T23:59:11.370Z,20.43
